JAL116 RJOO-RJTT
Flight info
| Callsign | JAL116 |
|---|---|
| Flight time | 0h 46m |
| Altitude | 25000 |
| Route | ASUKA SHTLE Y71 XAC |
| Aircraft | B738/M-SDE2E3FGHIRWXY/LB1 |
Departure
| Time | 2026-04-30 03:19 |
|---|---|
| Airport | Osaka Itami International Airport (RJOO) |
Arrival
| Time | 2026-04-30 04:06 |
|---|---|
| Airport | Tokyo Haneda International Airport (RJTT) |
| Time | Latitude | Longitude | Altitude | Speed | Heading |
|---|---|---|---|---|---|
| 2026-04-30 03:01 | 34.79130 | 135.43928 | 47 ft | 0 kts | 66° |
| 2026-04-30 03:08 | 34.79125 | 135.43914 | 47 ft | 4 kts | 69° |
| 2026-04-30 03:08 | 34.79116 | 135.43883 | 47 ft | 4 kts | 75° |
| 2026-04-30 03:08 | 34.79110 | 135.43851 | 47 ft | 4 kts | 79° |
| 2026-04-30 03:08 | 34.79106 | 135.43818 | 47 ft | 4 kts | 83° |
| 2026-04-30 03:09 | 34.79103 | 135.43786 | 47 ft | 4 kts | 88° |
| 2026-04-30 03:09 | 34.79103 | 135.43753 | 47 ft | 4 kts | 92° |
| 2026-04-30 03:09 | 34.79105 | 135.43721 | 47 ft | 4 kts | 98° |
| 2026-04-30 03:09 | 34.79111 | 135.43689 | 46 ft | 4 kts | 109° |
| 2026-04-30 03:10 | 34.79121 | 135.43663 | 47 ft | 2 kts | 130° |
| 2026-04-30 03:10 | 34.79122 | 135.43662 | 47 ft | 1 kts | 130° |
| 2026-04-30 03:12 | 34.79119 | 135.43665 | 47 ft | 1 kts | 130° |
| 2026-04-30 03:13 | 34.79109 | 135.43680 | 45 ft | 3 kts | 130° |
| 2026-04-30 03:13 | 34.79090 | 135.43706 | 47 ft | 5 kts | 131° |
| 2026-04-30 03:13 | 34.79055 | 135.43735 | 47 ft | 7 kts | 168° |
| 2026-04-30 03:13 | 34.78999 | 135.43725 | 47 ft | 9 kts | 188° |
| 2026-04-30 03:14 | 34.78941 | 135.43759 | 46 ft | 10 kts | 136° |
| 2026-04-30 03:14 | 34.78886 | 135.43826 | 47 ft | 12 kts | 134° |
| 2026-04-30 03:14 | 34.78821 | 135.43904 | 45 ft | 14 kts | 135° |
| 2026-04-30 03:14 | 34.78749 | 135.43992 | 45 ft | 15 kts | 135° |
| 2026-04-30 03:15 | 34.78669 | 135.44088 | 46 ft | 17 kts | 135° |
| 2026-04-30 03:15 | 34.78584 | 135.44192 | 47 ft | 17 kts | 135° |
| 2026-04-30 03:15 | 34.78499 | 135.44296 | 47 ft | 17 kts | 135° |
| 2026-04-30 03:15 | 34.78390 | 135.44335 | 49 ft | 17 kts | 180° |
| 2026-04-30 03:16 | 34.78266 | 135.44334 | 48 ft | 19 kts | 181° |
| 2026-04-30 03:16 | 34.78156 | 135.44359 | 47 ft | 16 kts | 139° |
| 2026-04-30 03:16 | 34.78072 | 135.44459 | 48 ft | 18 kts | 135° |
| 2026-04-30 03:16 | 34.77982 | 135.44566 | 47 ft | 18 kts | 134° |
| 2026-04-30 03:17 | 34.77889 | 135.44681 | 47 ft | 20 kts | 135° |
| 2026-04-30 03:17 | 34.77791 | 135.44800 | 47 ft | 20 kts | 135° |
| 2026-04-30 03:17 | 34.77689 | 135.44913 | 48 ft | 19 kts | 150° |
| 2026-04-30 03:17 | 34.77569 | 135.44980 | 48 ft | 19 kts | 155° |
| 2026-04-30 03:18 | 34.77460 | 135.45012 | 49 ft | 15 kts | 205° |
| 2026-04-30 03:18 | 34.77431 | 135.44935 | 47 ft | 11 kts | 296° |
| 2026-04-30 03:18 | 34.77461 | 135.44892 | 50 ft | 0 kts | 314° |
| 2026-04-30 03:18 | 34.77469 | 135.44883 | 50 ft | 3 kts | 314° |
| 2026-04-30 03:19 | 34.77632 | 135.44681 | 48 ft | 79 kts | 315° |
| 2026-04-30 03:19 | 34.78240 | 135.43957 | 49 ft | 162 kts | 315° |
| 2026-04-30 03:19 | 34.79165 | 135.42821 | 464 ft | 201 kts | 316° |
| 2026-04-30 03:19 | 34.80161 | 135.41641 | 1648 ft | 196 kts | 318° |
| 2026-04-30 03:20 | 34.81094 | 135.40504 | 2993 ft | 184 kts | 316° |
| 2026-04-30 03:20 | 34.81546 | 135.39729 | 3634 ft | 184 kts | 295° |
| 2026-04-30 03:20 | 34.81683 | 135.38182 | 4250 ft | 193 kts | 255° |
| 2026-04-30 03:20 | 34.80984 | 135.36707 | 4523 ft | 213 kts | 219° |
| 2026-04-30 03:21 | 34.79655 | 135.35926 | 4761 ft | 226 kts | 187° |
| 2026-04-30 03:21 | 34.78080 | 135.36002 | 5191 ft | 230 kts | 161° |
| 2026-04-30 03:21 | 34.76736 | 135.37028 | 5791 ft | 231 kts | 137° |
| 2026-04-30 03:21 | 34.75713 | 135.38425 | 6425 ft | 236 kts | 120° |
| 2026-04-30 03:22 | 34.75250 | 135.40342 | 7215 ft | 239 kts | 98° |
| 2026-04-30 03:22 | 34.75086 | 135.42372 | 7942 ft | 244 kts | 97° |
| 2026-04-30 03:22 | 34.74991 | 135.44474 | 8485 ft | 259 kts | 92° |
| 2026-04-30 03:22 | 34.75048 | 135.46752 | 8844 ft | 278 kts | 89° |
| 2026-04-30 03:23 | 34.75147 | 135.49025 | 9472 ft | 284 kts | 89° |
| 2026-04-30 03:23 | 34.75253 | 135.51441 | 10179 ft | 289 kts | 89° |
| 2026-04-30 03:23 | 34.75355 | 135.53970 | 10459 ft | 311 kts | 89° |
| 2026-04-30 03:23 | 34.75452 | 135.56697 | 10651 ft | 334 kts | 89° |
| 2026-04-30 03:24 | 34.75547 | 135.59564 | 11189 ft | 343 kts | 89° |
| 2026-04-30 03:24 | 34.75639 | 135.62448 | 11816 ft | 350 kts | 89° |
| 2026-04-30 03:24 | 34.75729 | 135.65435 | 12449 ft | 357 kts | 89° |
| 2026-04-30 03:24 | 34.75818 | 135.68479 | 13088 ft | 364 kts | 89° |
| 2026-04-30 03:25 | 34.75907 | 135.71618 | 13411 ft | 381 kts | 90° |
| 2026-04-30 03:25 | 34.75998 | 135.74913 | 13776 ft | 395 kts | 90° |
| 2026-04-30 03:25 | 34.76090 | 135.78269 | 14380 ft | 400 kts | 90° |
| 2026-04-30 03:25 | 34.76183 | 135.81671 | 14997 ft | 406 kts | 90° |
| 2026-04-30 03:26 | 34.76275 | 135.85143 | 15547 ft | 414 kts | 90° |
| 2026-04-30 03:26 | 34.76367 | 135.88622 | 16106 ft | 422 kts | 90° |
| 2026-04-30 03:26 | 34.76459 | 135.92216 | 16679 ft | 428 kts | 90° |
| 2026-04-30 03:26 | 34.76554 | 135.95857 | 17270 ft | 434 kts | 90° |
| 2026-04-30 03:27 | 34.76650 | 135.99559 | 17801 ft | 441 kts | 90° |
| 2026-04-30 03:27 | 34.76750 | 136.03313 | 18297 ft | 448 kts | 89° |
| 2026-04-30 03:27 | 34.76944 | 136.07113 | 18789 ft | 454 kts | 87° |
| 2026-04-30 03:27 | 34.77213 | 136.10952 | 19338 ft | 457 kts | 86° |
| 2026-04-30 03:28 | 34.77516 | 136.14817 | 19907 ft | 460 kts | 86° |
| 2026-04-30 03:28 | 34.77822 | 136.18674 | 20469 ft | 464 kts | 86° |
| 2026-04-30 03:28 | 34.78112 | 136.22420 | 20959 ft | 467 kts | 86° |
| 2026-04-30 03:28 | 34.78408 | 136.26373 | 21473 ft | 471 kts | 86° |
| 2026-04-30 03:29 | 34.78696 | 136.30347 | 21986 ft | 473 kts | 86° |
| 2026-04-30 03:29 | 34.78907 | 136.33313 | 22309 ft | 477 kts | 86° |
| 2026-04-30 03:29 | 34.78940 | 136.33784 | 22359 ft | 477 kts | 86° |
| 2026-04-30 03:29 | 34.79201 | 136.37512 | 22745 ft | 480 kts | 86° |
| 2026-04-30 03:30 | 34.79453 | 136.41128 | 23106 ft | 483 kts | 86° |
| 2026-04-30 03:30 | 34.79736 | 136.45220 | 23491 ft | 487 kts | 86° |
| 2026-04-30 03:30 | 34.80021 | 136.49343 | 23907 ft | 490 kts | 86° |
| 2026-04-30 03:30 | 34.80306 | 136.53484 | 24331 ft | 492 kts | 86° |
| 2026-04-30 03:31 | 34.80570 | 136.57322 | 24960 ft | 486 kts | 87° |
| 2026-04-30 03:31 | 34.80851 | 136.61411 | 25167 ft | 486 kts | 87° |
| 2026-04-30 03:31 | 34.81132 | 136.65548 | 25188 ft | 493 kts | 87° |
| 2026-04-30 03:31 | 34.81333 | 136.68537 | 25189 ft | 493 kts | 87° |
| 2026-04-30 03:32 | 34.81609 | 136.72625 | 25183 ft | 490 kts | 87° |
| 2026-04-30 03:32 | 34.81887 | 136.76746 | 25183 ft | 489 kts | 87° |
| 2026-04-30 03:32 | 34.82162 | 136.80870 | 25186 ft | 488 kts | 87° |
| 2026-04-30 03:32 | 34.82435 | 136.84990 | 25187 ft | 488 kts | 87° |
| 2026-04-30 03:33 | 34.82706 | 136.89084 | 25187 ft | 489 kts | 87° |
| 2026-04-30 03:33 | 34.82958 | 136.93060 | 25186 ft | 489 kts | 89° |
| 2026-04-30 03:33 | 34.82935 | 136.97187 | 25176 ft | 487 kts | 98° |
| 2026-04-30 03:33 | 34.82542 | 137.01109 | 25192 ft | 486 kts | 101° |
| 2026-04-30 03:34 | 34.82073 | 137.05059 | 25181 ft | 486 kts | 102° |
| 2026-04-30 03:34 | 34.81569 | 137.09134 | 25182 ft | 487 kts | 102° |
| 2026-04-30 03:34 | 34.81072 | 137.13210 | 25188 ft | 488 kts | 102° |
| 2026-04-30 03:34 | 34.80589 | 137.17296 | 25178 ft | 488 kts | 101° |
| 2026-04-30 03:35 | 34.80119 | 137.21383 | 25182 ft | 488 kts | 101° |
| 2026-04-30 03:35 | 34.79656 | 137.25475 | 25188 ft | 488 kts | 101° |
| 2026-04-30 03:35 | 34.79202 | 137.29509 | 25186 ft | 488 kts | 101° |
| 2026-04-30 03:35 | 34.78740 | 137.33603 | 25185 ft | 488 kts | 101° |
| 2026-04-30 03:36 | 34.78277 | 137.37694 | 25188 ft | 488 kts | 101° |
| 2026-04-30 03:36 | 34.77813 | 137.41775 | 25192 ft | 487 kts | 101° |
| 2026-04-30 03:36 | 34.77348 | 137.45857 | 25196 ft | 487 kts | 101° |
| 2026-04-30 03:36 | 34.76882 | 137.49930 | 25194 ft | 486 kts | 101° |
| 2026-04-30 03:37 | 34.76415 | 137.53997 | 25193 ft | 486 kts | 101° |
| 2026-04-30 03:37 | 34.75945 | 137.58074 | 25191 ft | 486 kts | 101° |
| 2026-04-30 03:37 | 34.75475 | 137.62136 | 25193 ft | 486 kts | 101° |
| 2026-04-30 03:37 | 34.75003 | 137.66204 | 25201 ft | 485 kts | 101° |
| 2026-04-30 03:38 | 34.74545 | 137.70263 | 25206 ft | 485 kts | 100° |
| 2026-04-30 03:38 | 34.74143 | 137.74333 | 25199 ft | 486 kts | 99° |
| 2026-04-30 03:38 | 34.73768 | 137.78429 | 25200 ft | 486 kts | 99° |
| 2026-04-30 03:38 | 34.73398 | 137.82516 | 25205 ft | 487 kts | 99° |
| 2026-04-30 03:39 | 34.73024 | 137.86552 | 25207 ft | 487 kts | 99° |
| 2026-04-30 03:39 | 34.72637 | 137.90643 | 25203 ft | 488 kts | 99° |
| 2026-04-30 03:39 | 34.72244 | 137.94737 | 25214 ft | 488 kts | 99° |
| 2026-04-30 03:39 | 34.71848 | 137.98830 | 25216 ft | 488 kts | 99° |
| 2026-04-30 03:40 | 34.71464 | 138.02925 | 25213 ft | 489 kts | 98° |
| 2026-04-30 03:40 | 34.71314 | 138.07063 | 25213 ft | 491 kts | 93° |
| 2026-04-30 03:40 | 34.71319 | 138.11208 | 25223 ft | 491 kts | 91° |
| 2026-04-30 03:40 | 34.71376 | 138.15357 | 25215 ft | 491 kts | 91° |
| 2026-04-30 03:41 | 34.71441 | 138.19518 | 25208 ft | 491 kts | 91° |
| 2026-04-30 03:41 | 34.71492 | 138.23659 | 25210 ft | 490 kts | 91° |
| 2026-04-30 03:41 | 34.71525 | 138.27799 | 25212 ft | 490 kts | 91° |
| 2026-04-30 03:41 | 34.71544 | 138.31930 | 25214 ft | 490 kts | 92° |
| 2026-04-30 03:42 | 34.71555 | 138.36066 | 25210 ft | 489 kts | 92° |
| 2026-04-30 03:42 | 34.71560 | 138.40213 | 25211 ft | 489 kts | 92° |
| 2026-04-30 03:42 | 34.71563 | 138.44343 | 25212 ft | 489 kts | 92° |
| 2026-04-30 03:42 | 34.71566 | 138.48484 | 25212 ft | 490 kts | 92° |
| 2026-04-30 03:43 | 34.71569 | 138.52563 | 25213 ft | 490 kts | 92° |
| 2026-04-30 03:43 | 34.71570 | 138.56681 | 25198 ft | 482 kts | 92° |
| 2026-04-30 03:43 | 34.71572 | 138.60718 | 25199 ft | 475 kts | 92° |
| 2026-04-30 03:43 | 34.71572 | 138.64727 | 25208 ft | 474 kts | 92° |
| 2026-04-30 03:44 | 34.71569 | 138.68739 | 25222 ft | 476 kts | 92° |
| 2026-04-30 03:44 | 34.71566 | 138.72766 | 24972 ft | 478 kts | 92° |
| 2026-04-30 03:44 | 34.71562 | 138.76785 | 24542 ft | 473 kts | 92° |
| 2026-04-30 03:44 | 34.71556 | 138.80778 | 24047 ft | 470 kts | 92° |
| 2026-04-30 03:45 | 34.71546 | 138.84726 | 23578 ft | 465 kts | 92° |
| 2026-04-30 03:45 | 34.71537 | 138.88591 | 23081 ft | 461 kts | 91° |
| 2026-04-30 03:45 | 34.71835 | 138.92450 | 22611 ft | 458 kts | 81° |
| 2026-04-30 03:45 | 34.72436 | 138.96282 | 22079 ft | 455 kts | 79° |
| 2026-04-30 03:46 | 34.73080 | 139.00059 | 21302 ft | 458 kts | 78° |
| 2026-04-30 03:46 | 34.73737 | 139.03860 | 20580 ft | 459 kts | 78° |
| 2026-04-30 03:46 | 34.74377 | 139.07636 | 19838 ft | 453 kts | 79° |
| 2026-04-30 03:46 | 34.74989 | 139.11337 | 19453 ft | 438 kts | 79° |
| 2026-04-30 03:47 | 34.75562 | 139.14874 | 19035 ft | 427 kts | 79° |
| 2026-04-30 03:47 | 34.76120 | 139.18362 | 18661 ft | 415 kts | 79° |
| 2026-04-30 03:47 | 34.76658 | 139.21764 | 18297 ft | 404 kts | 79° |
| 2026-04-30 03:47 | 34.77181 | 139.25075 | 17950 ft | 394 kts | 79° |
| 2026-04-30 03:48 | 34.77688 | 139.28300 | 17606 ft | 384 kts | 79° |
| 2026-04-30 03:48 | 34.78184 | 139.31454 | 17273 ft | 375 kts | 79° |
| 2026-04-30 03:48 | 34.78666 | 139.34523 | 16949 ft | 366 kts | 79° |
| 2026-04-30 03:48 | 34.79141 | 139.37536 | 16634 ft | 358 kts | 79° |
| 2026-04-30 03:49 | 34.79606 | 139.40499 | 16333 ft | 355 kts | 79° |
| 2026-04-30 03:49 | 34.80065 | 139.43430 | 16032 ft | 352 kts | 79° |
| 2026-04-30 03:49 | 34.80520 | 139.46344 | 15721 ft | 350 kts | 79° |
| 2026-04-30 03:49 | 34.80972 | 139.49241 | 15414 ft | 347 kts | 79° |
| 2026-04-30 03:50 | 34.81420 | 139.52117 | 15105 ft | 344 kts | 79° |
| 2026-04-30 03:50 | 34.81867 | 139.54985 | 14638 ft | 347 kts | 79° |
| 2026-04-30 03:50 | 34.82312 | 139.57855 | 14277 ft | 342 kts | 79° |
| 2026-04-30 03:50 | 34.82792 | 139.60647 | 13937 ft | 333 kts | 71° |
| 2026-04-30 03:51 | 34.83875 | 139.63022 | 13666 ft | 320 kts | 46° |
| 2026-04-30 03:51 | 34.85463 | 139.64842 | 13398 ft | 309 kts | 39° |
| 2026-04-30 03:51 | 34.87050 | 139.66572 | 13111 ft | 305 kts | 39° |
| 2026-04-30 03:51 | 34.88628 | 139.68301 | 12836 ft | 303 kts | 40° |
| 2026-04-30 03:52 | 34.90186 | 139.70020 | 12554 ft | 301 kts | 40° |
| 2026-04-30 03:52 | 34.91726 | 139.71730 | 12278 ft | 299 kts | 41° |
| 2026-04-30 03:52 | 34.93256 | 139.73436 | 12003 ft | 297 kts | 41° |
| 2026-04-30 03:52 | 34.94262 | 139.74562 | 11824 ft | 295 kts | 41° |
| 2026-04-30 03:53 | 34.95300 | 139.75725 | 11639 ft | 294 kts | 41° |
| 2026-04-30 03:53 | 34.96812 | 139.77423 | 11370 ft | 291 kts | 41° |
| 2026-04-30 03:53 | 34.98256 | 139.79045 | 11109 ft | 289 kts | 41° |
| 2026-04-30 03:53 | 34.99474 | 139.80415 | 10880 ft | 287 kts | 41° |
| 2026-04-30 03:54 | 35.00966 | 139.82095 | 10623 ft | 285 kts | 41° |
| 2026-04-30 03:54 | 35.02430 | 139.83744 | 10393 ft | 281 kts | 41° |
| 2026-04-30 03:54 | 35.03856 | 139.85351 | 10165 ft | 278 kts | 41° |
| 2026-04-30 03:54 | 35.05267 | 139.86945 | 9876 ft | 275 kts | 41° |
| 2026-04-30 03:55 | 35.06651 | 139.88506 | 9609 ft | 274 kts | 41° |
| 2026-04-30 03:55 | 35.08041 | 139.90075 | 9343 ft | 271 kts | 41° |
| 2026-04-30 03:55 | 35.09423 | 139.91635 | 9073 ft | 271 kts | 41° |
| 2026-04-30 03:55 | 35.10777 | 139.93166 | 9021 ft | 258 kts | 41° |
| 2026-04-30 03:56 | 35.12067 | 139.94625 | 8786 ft | 251 kts | 41° |
| 2026-04-30 03:56 | 35.13353 | 139.96079 | 8376 ft | 252 kts | 41° |
| 2026-04-30 03:56 | 35.14686 | 139.97456 | 8033 ft | 249 kts | 28° |
| 2026-04-30 03:56 | 35.16300 | 139.98051 | 7793 ft | 239 kts | 5° |
| 2026-04-30 03:57 | 35.17946 | 139.98147 | 7519 ft | 235 kts | 360° |
| 2026-04-30 03:57 | 35.19566 | 139.98168 | 7240 ft | 231 kts | 360° |
| 2026-04-30 03:57 | 35.21157 | 139.98199 | 6969 ft | 227 kts | 0° |
| 2026-04-30 03:57 | 35.22722 | 139.98241 | 6700 ft | 223 kts | 1° |
| 2026-04-30 03:58 | 35.24178 | 139.98284 | 6460 ft | 220 kts | 1° |
| 2026-04-30 03:58 | 35.25390 | 139.98188 | 6247 ft | 218 kts | 344° |
| 2026-04-30 03:58 | 35.25607 | 139.98109 | 6209 ft | 216 kts | 340° |
| 2026-04-30 03:58 | 35.26896 | 139.97439 | 5991 ft | 211 kts | 335° |
| 2026-04-30 03:59 | 35.28198 | 139.96628 | 5707 ft | 209 kts | 332° |
| 2026-04-30 03:59 | 35.29441 | 139.95768 | 5417 ft | 200 kts | 330° |
| 2026-04-30 03:59 | 35.30612 | 139.94936 | 5190 ft | 190 kts | 331° |
| 2026-04-30 03:59 | 35.31735 | 139.94136 | 4944 ft | 185 kts | 331° |
| 2026-04-30 04:00 | 35.32815 | 139.93368 | 4699 ft | 173 kts | 332° |
| 2026-04-30 04:00 | 35.33834 | 139.92644 | 4462 ft | 166 kts | 332° |
| 2026-04-30 04:00 | 35.34829 | 139.91938 | 4252 ft | 167 kts | 332° |
| 2026-04-30 04:00 | 35.35822 | 139.91233 | 4034 ft | 169 kts | 332° |
| 2026-04-30 04:01 | 35.36832 | 139.90517 | 3811 ft | 168 kts | 332° |
| 2026-04-30 04:01 | 35.37842 | 139.89799 | 3583 ft | 167 kts | 333° |
| 2026-04-30 04:01 | 35.38847 | 139.89085 | 3362 ft | 167 kts | 333° |
| 2026-04-30 04:01 | 35.39850 | 139.88372 | 3143 ft | 167 kts | 333° |
| 2026-04-30 04:02 | 35.40829 | 139.87677 | 2927 ft | 167 kts | 334° |
| 2026-04-30 04:02 | 35.41833 | 139.86964 | 2706 ft | 166 kts | 334° |
| 2026-04-30 04:02 | 35.42778 | 139.86292 | 2495 ft | 164 kts | 333° |
| 2026-04-30 04:02 | 35.43761 | 139.85594 | 2280 ft | 163 kts | 333° |
| 2026-04-30 04:03 | 35.44735 | 139.84904 | 2066 ft | 161 kts | 333° |
| 2026-04-30 04:03 | 35.45619 | 139.84276 | 1869 ft | 160 kts | 333° |
| 2026-04-30 04:03 | 35.46068 | 139.83958 | 1770 ft | 160 kts | 332° |
| 2026-04-30 04:03 | 35.46848 | 139.83404 | 1598 ft | 159 kts | 332° |
| 2026-04-30 04:04 | 35.47808 | 139.82735 | 1402 ft | 158 kts | 332° |
| 2026-04-30 04:04 | 35.48629 | 139.82181 | 1216 ft | 158 kts | 333° |
| 2026-04-30 04:04 | 35.49584 | 139.81519 | 958 ft | 158 kts | 330° |
| 2026-04-30 04:04 | 35.50496 | 139.80843 | 708 ft | 156 kts | 330° |
| 2026-04-30 04:05 | 35.51366 | 139.80198 | 518 ft | 155 kts | 330° |
| 2026-04-30 04:05 | 35.52310 | 139.79520 | 337 ft | 155 kts | 331° |
| 2026-04-30 04:05 | 35.53249 | 139.78859 | 164 ft | 156 kts | 331° |
| 2026-04-30 04:05 | 35.54110 | 139.78244 | 26 ft | 155 kts | 330° |
| 2026-04-30 04:06 | 35.54918 | 139.77686 | 22 ft | 114 kts | 330° |
| 2026-04-30 04:06 | 35.55316 | 139.77405 | 22 ft | 44 kts | 336° |
| 2026-04-30 04:06 | 35.55410 | 139.77365 | 20 ft | 28 kts | 343° |
| 2026-04-30 04:06 | 35.55480 | 139.77354 | 20 ft | 0 kts | 358° |
| 2026-04-30 04:07 | 35.55474 | 139.77354 | 20 ft | 0 kts | 358° |
| 2026-04-30 04:07 | 35.55473 | 139.77354 | 20 ft | 0 kts | 358° |
| 2026-04-30 04:07 | 35.55467 | 139.77354 | 20 ft | 0 kts | 358° |
| 2026-04-30 04:08 | 35.55507 | 139.77352 | 21 ft | 7 kts | 358° |
| 2026-04-30 04:08 | 35.55558 | 139.77364 | 20 ft | 10 kts | 38° |
| 2026-04-30 04:08 | 35.55581 | 139.77441 | 21 ft | 10 kts | 105° |
| 2026-04-30 04:08 | 35.55531 | 139.77497 | 23 ft | 11 kts | 152° |
| 2026-04-30 04:09 | 35.55450 | 139.77549 | 24 ft | 15 kts | 151° |
| 2026-04-30 04:09 | 35.55350 | 139.77617 | 21 ft | 18 kts | 151° |
| 2026-04-30 04:09 | 35.55235 | 139.77702 | 21 ft | 19 kts | 148° |
| 2026-04-30 04:09 | 35.55108 | 139.77792 | 22 ft | 22 kts | 150° |
| 2026-04-30 04:10 | 35.54971 | 139.77888 | 21 ft | 21 kts | 150° |
| 2026-04-30 04:10 | 35.54852 | 139.77973 | 22 ft | 21 kts | 149° |
| 2026-04-30 04:10 | 35.54721 | 139.78069 | 22 ft | 21 kts | 150° |
| 2026-04-30 04:10 | 35.54602 | 139.78153 | 21 ft | 18 kts | 149° |
| 2026-04-30 04:11 | 35.54598 | 139.78239 | 22 ft | 11 kts | 47° |